Airfield :
LOGIN :

Register | Disclaimer

   EN    FR    IT 

 










Legend :    VFR   Marginal VFR   IFR   Intensive IFR   Very Intensive IFR
Visi :
Ceiling :
>= 8 km
>= 3000ft
5 to 8 km
1000 to 3000 ft
1500m to 5 km
500 to 1000 ft
800 to 1500m
200 to 500 ft
< 800m
< 200 ft
Symbols :   Thunderstorms  Fog  Heavy snow  Heavy precipitations  Wind > 20 kt
SIGMETs :     Misc.  Thunderstorms  Icing  Turbulence  Mountain Waves  Volcanic Ashes






- Airport Elevation : 83 ft
- IATA code : LHR


EGLL - London Heathrow

CURRENT METAR :
  • 141820Z AUTO 09005KT 6000 NCD 15/14 Q1000 TEMPO BKN014

EXPIRED METARs :
  • 141750Z AUTO 08005KT 6000 FEW033/// SCT043/// //////TCU 15/14 Q1001 TEMPO BKN014
  • 141720Z AUTO 11007KT 7000 -RA FEW014 BKN027 BKN042 15/14 Q1001 TEMPO BKN014
  • 141650Z AUTO 10007KT 9000 -RA BKN012 15/14 Q1001 TEMPO SHRA
  • 141620Z AUTO 07007KT 8000 BKN017/// //////CB 14/14 Q1001 TEMPO RA BKN014
  • 141550Z AUTO 10009KT 9999 -RA BKN013 OVC045 14/13 Q1001 TEMPO RA

TAF TAF EGLL
Valid from the 14 at 18:00 until the 16 at 00:00 UTC


141705Z 1418/1524 09012KT 9999 SCT025
PROB30
TEMPO 1418/1421 18015G25KT 3000 +TSRA BKN008 BKN025CB
BECMG 1419/1421 25008KT
TEMPO 1421/1509 BKN006
PROB30
TEMPO 1500/1508 8000 BKN004
PROB30
TEMPO 1506/1509 4000 SHRA
TEMPO 1512/1518 6000 SHRA
PROB30
TEMPO 1515/1518 24015G25KT



MET'MAP, your aeronautical weather chart ! - Copyright ORBIFLY December 2007 - Disclaimer

ORBIFLY MET'MAP TEAM :

Programming & Development : Alexandra Zaïnal
Concept & Development : Baudouin d'Aumeries
Co-Development & Prog : Marc-Olivier Méhu
Technical & hardware support : Manuel Goepfert

Contact : metmap@orbifly.com




SOURCES & CREDITS :

   NOAA